createdAt,value
2018-04-12T00:00:43.086Z,4.77
2018-04-12T00:03:10.638Z,4.63
2018-04-12T00:05:38.111Z,4.77
2018-04-12T00:08:05.591Z,4.83
2018-04-12T00:10:33.052Z,4.85
2018-04-12T00:13:00.801Z,4.92
2018-04-12T00:15:28.247Z,4.93
2018-04-12T00:17:55.740Z,4.87
2018-04-12T00:20:23.233Z,4.88
2018-04-12T00:22:50.730Z,4.87
2018-04-12T00:25:18.175Z,4.81
2018-04-12T00:27:45.643Z,4.89
2018-04-12T00:30:14.127Z,4.71
2018-04-12T00:32:41.577Z,4.93
2018-04-12T00:35:09.051Z,4.86
2018-04-12T00:37:36.525Z,4.87
2018-04-12T00:40:04.969Z,4.85
2018-04-12T00:42:32.418Z,4.85
2018-04-12T00:44:59.890Z,4.74
2018-04-12T00:47:27.330Z,4.81
2018-04-12T00:49:54.799Z,4.82
2018-04-12T00:52:22.247Z,4.89
2018-04-12T00:54:49.715Z,4.80
2018-04-12T00:57:17.634Z,4.76
2018-04-12T00:59:45.137Z,4.83
2018-04-12T01:02:12.697Z,4.90
2018-04-12T01:04:40.199Z,4.86
2018-04-12T01:07:07.633Z,4.83
2018-04-12T01:09:35.174Z,4.80
2018-04-12T01:12:03.547Z,5.01
2018-04-12T01:14:32.007Z,5.05
2018-04-12T01:16:59.478Z,5.04
2018-04-12T01:19:26.919Z,5.20
2018-04-12T01:21:54.386Z,5.28
2018-04-12T01:24:21.821Z,5.28
2018-04-12T01:26:49.288Z,5.11
2018-04-12T01:29:16.731Z,5.31
2018-04-12T01:31:44.212Z,5.43
2018-04-12T01:34:11.664Z,5.43
2018-04-12T01:36:40.063Z,5.34
2018-04-12T01:39:07.589Z,5.28
2018-04-12T01:41:35.075Z,5.24
2018-04-12T01:44:03.530Z,5.21
2018-04-12T01:46:30.983Z,5.16
2018-04-12T01:48:58.454Z,5.09
2018-04-12T01:51:25.898Z,5.16
2018-04-12T01:53:53.380Z,5.08
2018-04-12T01:56:20.814Z,5.08
2018-04-12T01:58:48.294Z,5.04
2018-04-12T02:01:15.731Z,5.08
2018-04-12T02:03:43.218Z,5.10
2018-04-12T02:06:10.663Z,5.00
2018-04-12T02:08:38.147Z,5.01
2018-04-12T02:11:05.599Z,5.04
2018-04-12T02:13:33.066Z,5.03
2018-04-12T02:16:00.507Z,5.04
2018-04-12T02:18:27.980Z,5.08
2018-04-12T02:20:55.432Z,5.09
2018-04-12T02:23:22.908Z,5.10
2018-04-12T02:25:50.427Z,5.04
2018-04-12T02:28:17.903Z,5.01
2018-04-12T02:30:45.343Z,4.93
2018-04-12T02:33:12.819Z,5.09
2018-04-12T02:35:40.263Z,5.07
2018-04-12T02:38:07.718Z,5.06
2018-04-12T02:40:35.186Z,5.11
2018-04-12T02:43:02.622Z,5.14
2018-04-12T02:45:30.102Z,5.13
2018-04-12T02:47:57.551Z,5.20
2018-04-12T02:50:25.026Z,5.21
2018-04-12T02:52:52.535Z,5.24
2018-04-12T02:55:20.011Z,5.22
2018-04-12T02:57:47.458Z,5.14
2018-04-12T03:00:14.932Z,5.28
2018-04-12T03:02:42.376Z,5.32
2018-04-12T03:05:09.849Z,5.33
2018-04-12T03:07:37.287Z,5.33
2018-04-12T03:10:04.818Z,5.27
2018-04-12T03:12:32.238Z,5.20
2018-04-12T03:14:59.710Z,5.13
2018-04-12T03:17:27.196Z,5.17
2018-04-12T03:19:55.590Z,5.15
2018-04-12T03:22:23.051Z,5.06
2018-04-12T03:24:50.503Z,5.07
2018-04-12T03:27:18.047Z,5.07
2018-04-12T03:29:45.509Z,5.07
2018-04-12T03:32:13.059Z,5.14
2018-04-12T03:34:40.510Z,5.00
2018-04-12T03:37:07.995Z,4.98
2018-04-12T03:39:36.415Z,5.03
2018-04-12T03:42:03.910Z,5.08
2018-04-12T03:44:31.360Z,5.21
2018-04-12T03:46:58.924Z,5.29
2018-04-12T03:49:26.428Z,5.16
2018-04-12T03:51:53.938Z,5.14
2018-04-12T03:54:21.374Z,5.17
2018-04-12T03:56:48.956Z,5.20
2018-04-12T03:59:16.406Z,5.22
2018-04-12T04:01:44.195Z,5.21
2018-04-12T04:04:12.546Z,5.28
2018-04-12T04:06:39.998Z,5.23
2018-04-12T04:09:07.488Z,5.18
2018-04-12T04:11:34.930Z,5.13
2018-04-12T04:14:02.487Z,5.10
2018-04-12T04:16:41.795Z,5.28
2018-04-12T04:19:21.150Z,5.19
2018-04-12T04:21:48.603Z,5.24
2018-04-12T04:24:16.090Z,5.24
2018-04-12T04:26:43.538Z,5.15
2018-04-12T04:29:11.015Z,5.15
2018-04-12T04:31:38.467Z,5.23
2018-04-12T04:34:05.934Z,5.23
2018-04-12T04:36:33.383Z,5.29
2018-04-12T04:39:01.830Z,5.25
2018-04-12T04:41:30.275Z,5.35
2018-04-12T04:43:57.742Z,5.39
2018-04-12T04:46:25.185Z,5.19
2018-04-12T04:48:52.670Z,5.26
2018-04-12T04:51:20.111Z,5.25
2018-04-12T04:53:48.479Z,5.22
2018-04-12T04:56:15.960Z,5.36
2018-04-12T04:58:43.418Z,5.41
2018-04-12T05:01:10.907Z,5.51
2018-04-12T05:03:39.369Z,5.53
2018-04-12T05:06:06.859Z,5.58
2018-04-12T05:08:34.306Z,5.65
2018-04-12T05:11:01.850Z,5.74
2018-04-12T05:13:29.290Z,5.54
2018-04-12T05:15:56.767Z,5.59
2018-04-12T05:18:25.231Z,5.59
2018-04-12T05:20:52.896Z,5.77
2018-04-12T05:23:20.348Z,5.74
2018-04-12T05:25:47.791Z,5.88
2018-04-12T05:28:15.274Z,5.79
2018-04-12T05:30:42.720Z,5.78
2018-04-12T05:33:10.303Z,5.91
2018-04-12T05:35:37.752Z,6.03
2018-04-12T05:38:06.206Z,5.95
2018-04-12T05:40:33.650Z,6.03
2018-04-12T05:43:01.130Z,6.18
2018-04-12T05:45:28.591Z,6.34
2018-04-12T05:47:56.075Z,6.31
2018-04-12T05:50:23.514Z,6.37
2018-04-12T05:52:51.061Z,6.22
2018-04-12T05:55:18.623Z,6.36
2018-04-12T05:57:46.082Z,6.42
2018-04-12T06:00:13.556Z,6.58
2018-04-12T06:02:41.987Z,6.43
2018-04-12T06:05:09.566Z,6.45
2018-04-12T06:07:37.007Z,6.24
2018-04-12T06:10:05.412Z,6.33
2018-04-12T06:12:32.860Z,6.47
2018-04-12T06:15:00.343Z,6.58
2018-04-12T06:17:29.840Z,6.54
2018-04-12T06:19:57.324Z,6.53
2018-04-12T06:22:24.781Z,6.76
2018-04-12T06:24:52.260Z,7.00
2018-04-12T06:27:19.717Z,6.92
2018-04-12T06:29:47.204Z,7.07
2018-04-12T06:32:14.688Z,7.09
2018-04-12T06:34:42.146Z,7.31
2018-04-12T06:37:09.635Z,7.21
2018-04-12T06:39:37.083Z,7.46
2018-04-12T06:42:05.515Z,7.36
2018-04-12T06:44:35.006Z,7.47
2018-04-12T06:47:02.483Z,7.73
2018-04-12T06:49:29.932Z,7.99
2018-04-12T06:51:58.435Z,8.12
2018-04-12T06:54:25.883Z,8.01
2018-04-12T06:56:54.356Z,8.08
2018-04-12T06:59:21.803Z,8.35
2018-04-12T07:01:49.286Z,8.31
2018-04-12T07:04:16.834Z,8.43
2018-04-12T07:06:44.398Z,8.18
2018-04-12T07:09:11.863Z,8.15
2018-04-12T07:11:39.352Z,8.43
2018-04-12T07:14:06.822Z,8.48
2018-04-12T07:16:34.375Z,8.29
2018-04-12T07:19:01.932Z,8.08
2018-04-12T07:21:29.445Z,8.34
2018-04-12T07:23:56.933Z,8.25
2018-04-12T07:26:24.386Z,8.43
2018-04-12T07:28:51.866Z,8.63
2018-04-12T07:31:19.329Z,8.57
2018-04-12T07:33:46.811Z,8.64
2018-04-12T07:36:14.334Z,8.81
2018-04-12T07:38:41.835Z,8.79
2018-04-12T07:41:09.324Z,9.05
2018-04-12T07:43:36.857Z,9.30
2018-04-12T07:46:04.366Z,9.05
2018-04-12T07:48:31.934Z,9.17
2018-04-12T07:50:59.398Z,9.10
2018-04-12T07:53:26.890Z,9.26
2018-04-12T07:55:54.343Z,9.32
2018-04-12T07:58:21.812Z,9.52
2018-04-12T08:00:49.278Z,9.60
2018-04-12T08:03:16.759Z,9.39
2018-04-12T08:05:44.245Z,9.48
2018-04-12T08:08:11.727Z,9.69
2018-04-12T08:10:39.179Z,10.16
2018-04-12T08:13:06.635Z,9.75
2018-04-12T08:15:34.115Z,9.70
2018-04-12T08:18:01.610Z,9.82
2018-04-12T08:20:29.087Z,9.87
2018-04-12T08:22:56.525Z,9.69
2018-04-12T08:25:23.999Z,9.65
2018-04-12T08:27:51.518Z,9.58
2018-04-12T08:30:18.983Z,9.82
2018-04-12T08:32:46.423Z,9.74
2018-04-12T08:35:13.895Z,9.57
2018-04-12T08:37:41.367Z,9.73
2018-04-12T08:40:08.874Z,9.71
2018-04-12T08:42:36.332Z,9.83
2018-04-12T08:45:03.900Z,9.98
2018-04-12T08:47:31.344Z,9.93
2018-04-12T08:49:58.918Z,10.03
2018-04-12T08:52:26.389Z,10.21
2018-04-12T08:54:53.868Z,10.29
2018-04-12T08:57:21.352Z,10.60
2018-04-12T08:59:48.802Z,10.72
2018-04-12T09:02:16.331Z,10.13
2018-04-12T09:04:43.779Z,9.91
2018-04-12T09:07:11.259Z,10.07
2018-04-12T09:09:38.712Z,9.82
2018-04-12T09:12:06.343Z,10.34
2018-04-12T09:14:34.847Z,10.09
2018-04-12T09:17:02.386Z,10.33
2018-04-12T09:19:30.803Z,10.70
2018-04-12T09:21:58.291Z,10.46
2018-04-12T09:24:25.746Z,10.68
2018-04-12T09:26:53.396Z,10.29
2018-04-12T09:29:20.852Z,10.84
2018-04-12T09:31:48.297Z,10.69
2018-04-12T09:34:15.786Z,11.22
2018-04-12T09:36:43.265Z,10.73
2018-04-12T09:39:10.747Z,10.66
2018-04-12T09:41:38.235Z,11.15
2018-04-12T09:44:05.731Z,11.48
2018-04-12T09:46:35.196Z,11.07
2018-04-12T09:49:04.621Z,11.52
2018-04-12T09:51:33.031Z,11.88
2018-04-12T09:54:00.524Z,12.11
2018-04-12T09:56:27.995Z,12.17
2018-04-12T09:58:55.495Z,11.76
2018-04-12T10:01:22.959Z,11.44
2018-04-12T10:03:50.433Z,11.43
2018-04-12T10:06:22.829Z,11.68
2018-04-12T10:08:56.009Z,11.38
2018-04-12T10:11:23.475Z,11.02
2018-04-12T10:13:50.969Z,11.00
2018-04-12T10:16:18.420Z,11.38
2018-04-12T10:18:45.975Z,10.92
2018-04-12T10:21:13.516Z,11.17
2018-04-12T10:23:40.971Z,10.98
2018-04-12T10:26:08.518Z,11.27
2018-04-12T10:28:35.992Z,11.35
2018-04-12T10:31:03.470Z,11.51
2018-04-12T10:33:30.914Z,11.63
2018-04-12T10:35:58.391Z,11.45
2018-04-12T10:38:25.838Z,11.49
2018-04-12T10:40:53.327Z,11.16
2018-04-12T10:43:21.833Z,11.22
2018-04-12T10:45:49.326Z,11.49
2018-04-12T10:48:16.785Z,11.91
2018-04-12T10:50:44.289Z,12.24
2018-04-12T10:53:11.744Z,12.31
2018-04-12T10:55:39.196Z,12.59
2018-04-12T10:58:06.682Z,12.25
2018-04-12T11:00:34.194Z,11.84
2018-04-12T11:03:01.676Z,12.14
2018-04-12T11:05:29.143Z,12.40
2018-04-12T11:07:56.625Z,11.72
2018-04-12T11:10:24.071Z,11.83
2018-04-12T11:12:51.554Z,12.11
2018-04-12T11:15:19.015Z,12.11
2018-04-12T11:17:46.541Z,12.19
2018-04-12T11:20:14.003Z,12.74
2018-04-12T11:22:41.470Z,12.26
2018-04-12T11:25:08.946Z,11.81
2018-04-12T11:27:36.395Z,11.93
2018-04-12T11:30:03.905Z,11.53
2018-04-12T11:32:31.361Z,11.39
2018-04-12T11:34:58.854Z,11.90
2018-04-12T11:37:26.323Z,11.99
2018-04-12T11:39:53.850Z,12.25
2018-04-12T11:42:21.303Z,12.33
2018-04-12T11:44:48.800Z,12.67
2018-04-12T11:47:16.297Z,12.20
2018-04-12T11:49:44.755Z,12.35
2018-04-12T11:52:13.144Z,12.21
2018-04-12T11:54:40.641Z,12.09
2018-04-12T11:57:08.091Z,12.09
2018-04-12T11:59:35.579Z,12.19
2018-04-12T12:02:03.053Z,12.66
2018-04-12T12:04:30.575Z,12.23
2018-04-12T12:06:58.089Z,12.28
2018-04-12T12:09:25.525Z,11.74
2018-04-12T12:11:53.035Z,11.75
2018-04-12T12:14:20.537Z,12.23
2018-04-12T12:16:48.023Z,12.13
2018-04-12T12:19:16.519Z,12.63
2018-04-12T12:21:44.022Z,12.82
2018-04-12T12:24:11.543Z,12.88
2018-04-12T12:26:39.069Z,12.35
2018-04-12T12:29:06.548Z,12.42
2018-04-12T12:31:34.007Z,12.33
2018-04-12T12:34:01.491Z,12.37
2018-04-12T12:36:29.008Z,12.02
2018-04-12T12:38:56.495Z,11.88
2018-04-12T12:41:23.938Z,12.10
2018-04-12T12:43:51.524Z,11.58
2018-04-12T12:46:18.942Z,11.66
2018-04-12T12:48:46.415Z,11.69
2018-04-12T12:51:13.859Z,11.51
2018-04-12T12:53:41.385Z,11.57
2018-04-12T12:56:08.893Z,11.64
2018-04-12T12:58:36.343Z,11.41
2018-04-12T13:01:03.796Z,11.69
2018-04-12T13:03:32.239Z,12.37
2018-04-12T13:05:59.695Z,12.36
2018-04-12T13:08:27.182Z,11.75
2018-04-12T13:10:54.659Z,11.36
2018-04-12T13:13:22.144Z,11.18
2018-04-12T13:15:49.640Z,11.25
2018-04-12T13:18:18.050Z,11.49
2018-04-12T13:20:45.526Z,11.93
2018-04-12T13:23:12.975Z,12.25
2018-04-12T13:25:40.450Z,12.73
2018-04-12T13:28:07.921Z,11.84
2018-04-12T13:30:35.398Z,11.64
2018-04-12T13:33:05.380Z,11.93
2018-04-12T13:35:32.830Z,11.84
2018-04-12T13:38:00.283Z,11.60
2018-04-12T13:40:27.786Z,11.61
2018-04-12T13:42:55.251Z,11.17
2018-04-12T13:45:23.683Z,10.81
2018-04-12T13:47:54.881Z,10.61
2018-04-12T13:50:23.952Z,11.00
2018-04-12T13:52:51.431Z,11.03
2018-04-12T13:55:19.698Z,11.20
2018-04-12T13:57:52.288Z,11.46
2018-04-12T14:03:29.390Z,11.10
2018-04-12T14:08:45.500Z,11.27
2018-04-12T14:11:18.143Z,10.69
2018-04-12T14:13:45.760Z,10.46
2018-04-12T14:16:15.140Z,10.07
2018-04-12T14:18:44.630Z,10.37
2018-04-12T14:21:15.867Z,10.18
2018-04-12T14:23:43.354Z,10.22
2018-04-12T14:26:12.196Z,9.84
2018-04-12T14:28:39.669Z,9.75
2018-04-12T14:31:07.123Z,9.88
2018-04-12T14:33:35.578Z,9.98
2018-04-12T14:36:03.106Z,10.50
2018-04-12T14:38:30.550Z,11.75
2018-04-12T14:40:58.008Z,12.56
2018-04-12T14:43:25.486Z,12.22
2018-04-12T14:45:53.866Z,11.40
2018-04-12T14:48:21.352Z,11.15
2018-04-12T14:50:49.728Z,11.07
2018-04-12T14:53:17.224Z,11.18
2018-04-12T14:55:44.674Z,11.38
2018-04-12T14:58:12.156Z,12.32
2018-04-12T15:00:39.631Z,13.14
2018-04-12T15:03:07.100Z,13.96
2018-04-12T15:05:34.599Z,12.46
2018-04-12T15:08:02.068Z,11.50
2018-04-12T15:10:29.551Z,10.87
2018-04-12T15:12:57.030Z,10.72
2018-04-12T15:15:25.422Z,10.58
2018-04-12T15:17:52.866Z,10.33
2018-04-12T15:20:20.354Z,10.19
2018-04-12T15:22:47.808Z,9.92
2018-04-12T15:25:15.309Z,9.96
2018-04-12T15:27:44.361Z,10.07
2018-04-12T15:30:12.957Z,10.47
2018-04-12T15:32:40.547Z,12.23
2018-04-12T15:35:08.024Z,14.98
2018-04-12T15:37:35.523Z,17.05
2018-04-12T15:40:03.460Z,17.43
2018-04-12T15:42:30.943Z,16.63
2018-04-12T15:44:59.379Z,16.73
2018-04-12T15:47:26.901Z,16.99
2018-04-12T15:49:54.357Z,13.44
2018-04-12T15:52:21.854Z,15.88
2018-04-12T15:54:49.315Z,15.31
2018-04-12T15:57:16.794Z,15.22
2018-04-12T15:59:44.247Z,15.15
2018-04-12T16:02:11.730Z,15.21
2018-04-12T16:04:39.182Z,16.37
2018-04-12T16:07:06.672Z,16.21
2018-04-12T16:09:34.617Z,12.52
2018-04-12T16:12:02.079Z,11.56
2018-04-12T16:14:29.565Z,12.26
2018-04-12T16:16:57.015Z,11.13
2018-04-12T16:19:25.439Z,10.83
2018-04-12T16:21:52.905Z,10.52
2018-04-12T16:24:20.392Z,10.41
2018-04-12T16:26:48.759Z,10.47
2018-04-12T16:29:18.240Z,13.55
2018-04-12T16:31:45.707Z,13.10
2018-04-12T16:34:13.188Z,13.29
2018-04-12T16:36:42.906Z,13.28
2018-04-12T16:39:10.415Z,11.10
2018-04-12T16:41:37.888Z,11.54
2018-04-12T16:44:05.399Z,11.64
2018-04-12T16:46:33.785Z,11.94
2018-04-12T16:49:03.193Z,10.59
2018-04-12T16:51:31.587Z,9.95
2018-04-12T16:53:59.044Z,9.98
2018-04-12T16:56:27.573Z,9.74
2018-04-12T16:58:54.995Z,9.64
2018-04-12T17:01:28.827Z,9.36
2018-04-12T17:03:56.289Z,8.90
2018-04-12T17:06:23.780Z,8.71
2018-04-12T17:08:51.252Z,8.33
2018-04-12T17:11:18.756Z,8.16
2018-04-12T17:13:46.214Z,8.26
2018-04-12T17:16:13.695Z,8.04
2018-04-12T17:18:41.153Z,7.94
2018-04-12T17:21:08.662Z,7.84
2018-04-12T17:23:36.124Z,7.76
2018-04-12T17:26:03.625Z,7.66
2018-04-12T17:28:31.079Z,7.67
2018-04-12T17:30:58.552Z,7.67
2018-04-12T17:33:27.937Z,7.62
2018-04-12T17:35:59.100Z,7.59
2018-04-12T17:38:26.587Z,7.37
2018-04-12T17:40:54.043Z,7.41
2018-04-12T17:43:21.522Z,7.25
2018-04-12T17:45:48.997Z,7.24
2018-04-12T17:48:16.487Z,7.26
2018-04-12T17:50:43.952Z,7.21
2018-04-12T17:53:11.452Z,7.04
2018-04-12T17:55:38.922Z,6.96
2018-04-12T17:58:07.395Z,7.03
2018-04-12T18:00:35.831Z,7.04
2018-04-12T18:03:03.329Z,6.85
2018-04-12T18:05:30.801Z,6.86
2018-04-12T18:07:59.144Z,6.86
2018-04-12T18:10:26.631Z,6.90
2018-04-12T18:12:54.123Z,6.99
2018-04-12T18:15:21.628Z,6.96
2018-04-12T18:17:49.076Z,6.78
2018-04-12T18:20:16.551Z,6.81
2018-04-12T18:22:43.998Z,6.82
2018-04-12T18:25:14.391Z,6.73
2018-04-12T18:27:41.838Z,6.68
2018-04-12T18:30:09.315Z,6.63
2018-04-12T18:32:36.780Z,6.73
2018-04-12T18:35:04.297Z,6.69
2018-04-12T18:37:31.835Z,6.57
2018-04-12T18:39:59.292Z,6.58
2018-04-12T18:42:26.774Z,6.64
2018-04-12T18:44:54.232Z,6.55
2018-04-12T18:47:21.792Z,6.61
2018-04-12T18:49:49.290Z,6.57
2018-04-12T18:52:16.763Z,6.60
2018-04-12T18:54:44.209Z,6.53
2018-04-12T18:57:14.633Z,6.57
2018-04-12T18:59:42.306Z,6.54
2018-04-12T19:02:10.228Z,6.61
2018-04-12T19:04:37.787Z,6.55
2018-04-12T19:07:05.314Z,6.56
2018-04-12T19:09:32.763Z,6.67
2018-04-12T19:12:01.428Z,6.57
2018-04-12T19:14:28.980Z,6.48
2018-04-12T19:16:57.418Z,6.58
2018-04-12T19:19:24.866Z,6.57
2018-04-12T19:21:52.351Z,6.48
2018-04-12T19:24:19.803Z,6.51
2018-04-12T19:26:47.328Z,6.60
2018-04-12T19:29:14.788Z,6.56
2018-04-12T19:31:42.243Z,6.52
2018-04-12T19:34:09.715Z,6.48
2018-04-12T19:36:37.228Z,6.53
2018-04-12T19:39:04.818Z,6.47
2018-04-12T19:41:32.290Z,6.47
2018-04-12T19:43:59.799Z,6.40
2018-04-12T19:46:27.316Z,6.38
2018-04-12T19:48:54.996Z,6.50
2018-04-12T19:51:22.472Z,6.45
2018-04-12T19:53:49.958Z,6.51
2018-04-12T19:56:18.272Z,6.55
2018-04-12T19:58:47.209Z,6.60
2018-04-12T20:01:14.727Z,6.51
2018-04-12T20:03:42.220Z,6.53
2018-04-12T20:06:09.682Z,6.49
2018-04-12T20:08:38.101Z,6.50
2018-04-12T20:11:05.618Z,6.48
2018-04-12T20:13:33.126Z,6.50
2018-04-12T20:16:01.516Z,6.51
2018-04-12T20:18:29.075Z,6.51
2018-04-12T20:20:56.620Z,6.50
2018-04-12T20:23:24.103Z,6.58
2018-04-12T20:25:51.590Z,6.58
2018-04-12T20:28:19.102Z,6.60
2018-04-12T20:30:46.553Z,6.69
2018-04-12T20:33:14.030Z,6.73
2018-04-12T20:35:45.161Z,6.72
2018-04-12T20:38:12.623Z,6.68
2018-04-12T20:40:43.583Z,6.73
2018-04-12T20:43:11.028Z,6.78
2018-04-12T20:45:38.541Z,6.72
2018-04-12T20:48:06.015Z,6.76
2018-04-12T20:50:33.492Z,6.81
2018-04-12T20:53:00.944Z,6.78
2018-04-12T20:55:29.277Z,6.71
2018-04-12T20:57:56.729Z,6.71
2018-04-12T21:00:24.685Z,6.80
2018-04-12T21:02:52.298Z,6.77
2018-04-12T21:05:19.796Z,6.90
2018-04-12T21:07:47.266Z,6.94
2018-04-12T21:10:14.727Z,7.02
2018-04-12T21:12:42.255Z,6.92
2018-04-12T21:15:09.750Z,6.87
2018-04-12T21:17:37.355Z,6.82
2018-04-12T21:20:04.831Z,6.68
2018-04-12T21:22:32.375Z,6.79
2018-04-12T21:24:59.896Z,6.77
2018-04-12T21:27:27.411Z,6.76
2018-04-12T21:29:56.687Z,6.82
2018-04-12T21:32:24.468Z,6.80
2018-04-12T21:34:52.882Z,6.79
2018-04-12T21:37:20.408Z,6.74
2018-04-12T21:39:47.859Z,6.73
2018-04-12T21:42:16.040Z,6.80
2018-04-12T21:44:43.516Z,6.78
2018-04-12T21:47:10.958Z,6.75
2018-04-12T21:49:38.500Z,6.77
2018-04-12T21:52:05.897Z,6.79
2018-04-12T21:54:33.377Z,6.78
2018-04-12T21:57:00.833Z,6.79
2018-04-12T21:59:30.389Z,6.83
2018-04-12T22:01:58.910Z,6.88
2018-04-12T22:04:27.562Z,7.03
2018-04-12T22:06:55.054Z,6.96
2018-04-12T22:09:22.562Z,7.04
2018-04-12T22:11:51.006Z,7.12
2018-04-12T22:14:18.490Z,7.10
2018-04-12T22:16:45.960Z,7.12
2018-04-12T22:19:13.490Z,7.18
2018-04-12T22:21:41.922Z,7.11
2018-04-12T22:24:09.503Z,7.20
2018-04-12T22:26:37.001Z,7.20
2018-04-12T22:29:04.466Z,7.21
2018-04-12T22:31:31.948Z,7.14
2018-04-12T22:34:00.089Z,7.20
2018-04-12T22:36:27.574Z,7.20
2018-04-12T22:38:55.021Z,7.23
2018-04-12T22:41:22.530Z,7.25
2018-04-12T22:43:50.177Z,7.31
2018-04-12T22:46:17.654Z,7.34
2018-04-12T22:48:45.155Z,7.34
2018-04-12T22:51:13.679Z,7.32
2018-04-12T22:53:44.806Z,7.34
2018-04-12T22:56:13.221Z,7.41
2018-04-12T22:58:46.726Z,7.43
2018-04-12T23:01:15.244Z,7.49
2018-04-12T23:03:42.771Z,7.37
2018-04-12T23:06:13.297Z,7.33
2018-04-12T23:08:40.793Z,7.38
2018-04-12T23:11:11.955Z,7.39
2018-04-12T23:13:39.604Z,7.45
2018-04-12T23:16:07.091Z,7.47
2018-04-12T23:18:34.534Z,7.48
2018-04-12T23:21:02.000Z,7.46
2018-04-12T23:23:29.583Z,7.53
2018-04-12T23:25:59.015Z,7.54
2018-04-12T23:28:26.582Z,7.64
2018-04-12T23:30:54.057Z,7.58
2018-04-12T23:33:22.764Z,7.63
2018-04-12T23:35:50.206Z,7.63
2018-04-12T23:38:19.098Z,7.69
2018-04-12T23:40:46.679Z,7.74
2018-04-12T23:43:14.183Z,7.75
2018-04-12T23:45:41.666Z,7.82
2018-04-12T23:48:09.150Z,7.89
2018-04-12T23:50:37.450Z,7.98
2018-04-12T23:53:05.832Z,8.05
2018-04-12T23:55:34.260Z,8.03
2018-04-12T23:58:01.741Z,8.12
